Pagina principale
METAR-TAF:

METAR-TAF

Aeroporti :

Aeroporto di Genova-Sestri

Genova, Italia

latitudine: 44-25N, longitudine: 008-51E, altezza: 2 m

Osservazione

Il bollettino è stato emesso 17 minuti fa, alle 11:50 UTC
Vento 6 kt da sud-est, variando fra est e sud/sud-est
Temperature 30°C
Umidità 62%
Pressione 1021 hPa
Visibilità 10 km o più
nessuna nube inferiore a 1500 m e nessun cumulonembo

METAR: LIMJ 261150Z 13006KT 100V160 CAVOK 30/22 Q1021

Ora: 14:07 (12:07 UTC)

Previsione

Il bollettino è stato emesso 1 ora e 7 minuti fa, alle 11:00 UTC
Previsione valida dal 26 alle 12 UTC al 27 alle 12 UTC
Vento 5 kt da direzioni variabili
Visibilità 10 km o più
nessuna nube inferiore a 1500 m e nessun cumulonembo

TAF: LIMJ 261100Z 2612/2712 VRB05KT CAVOK

Osservazioni e previsioni meteorologiche di più di 4000 aeroporti (messaggi METAR e TAF).

Le stazioni disponibili sono rappresentate dai dischi gialli e rossi sulla carta.

Puntare il mouse per vedere il nome della stazione.

Clicca sopra per visualizzare le osservazioni e previsioni meteorologiche.

Per cambiare la mappa : fare clic sui pulsanti verdi con una croce nera per ingrandire, il pulsante verde con un trattino per diminuire, o sulla freccia verde per le mappe adiacenti.


METAR-TAF: